createdAt,value
2023-04-27T00:01:23.971Z,16.65
2023-04-27T00:04:25.769Z,16.17
2023-04-27T00:07:28.209Z,16.80
2023-04-27T00:10:29.904Z,17.83
2023-04-27T00:13:31.503Z,13.55
2023-04-27T00:16:33.121Z,16.60
2023-04-27T00:19:35.027Z,11.57
2023-04-27T00:22:36.587Z,15.30
2023-04-27T00:25:38.317Z,14.45
2023-04-27T00:28:39.938Z,18.23
2023-04-27T00:31:41.636Z,12.30
2023-04-27T00:34:43.228Z,19.08
2023-04-27T00:37:44.791Z,17.08
2023-04-27T00:40:47.743Z,18.85
2023-04-27T00:43:49.287Z,14.90
2023-04-27T00:46:53.722Z,15.48
2023-04-27T00:49:56.398Z,16.02
2023-04-27T00:52:58.106Z,17.20
2023-04-27T00:55:59.726Z,17.73
2023-04-27T00:59:01.303Z,13.07
2023-04-27T01:02:03.276Z,13.05
2023-04-27T01:05:05.146Z,18.90
2023-04-27T01:08:07.094Z,18.83
2023-04-27T01:11:08.645Z,15.98
2023-04-27T01:14:10.486Z,17.52
2023-04-27T01:17:12.092Z,16.05
2023-04-27T01:20:14.757Z,12.60
2023-04-27T01:23:17.503Z,11.98
2023-04-27T01:26:19.339Z,19.55
2023-04-27T01:29:21.411Z,15.68
2023-04-27T01:32:23.040Z,15.90
2023-04-27T01:35:25.690Z,16.85
2023-04-27T01:38:29.318Z,22.70
2023-04-27T01:41:31.284Z,14.45
2023-04-27T01:44:33.150Z,20.10
2023-04-27T01:47:34.887Z,16.88
2023-04-27T01:50:36.443Z,18.10
2023-04-27T01:53:38.010Z,20.27
2023-04-27T01:56:39.594Z,19.83
2023-04-27T01:59:41.147Z,16.67
2023-04-27T02:02:42.901Z,22.88
2023-04-27T02:05:44.582Z,21.00
2023-04-27T02:08:46.175Z,17.20
2023-04-27T02:11:47.724Z,21.00
2023-04-27T02:14:49.290Z,19.13
2023-04-27T02:17:50.948Z,15.38
2023-04-27T02:20:52.648Z,19.20
2023-04-27T02:23:54.248Z,19.17
2023-04-27T02:26:55.889Z,23.85
2023-04-27T02:29:57.486Z,21.58
2023-04-27T02:33:00.809Z,21.27
2023-04-27T02:36:04.129Z,20.48
2023-04-27T02:39:05.852Z,18.50
2023-04-27T02:42:07.390Z,17.05
2023-04-27T02:45:09.216Z,26.10
2023-04-27T02:48:10.967Z,21.88
2023-04-27T02:51:12.586Z,22.67
2023-04-27T02:54:14.149Z,19.15
2023-04-27T02:57:15.883Z,23.67
2023-04-27T03:00:18.814Z,22.95
2023-04-27T03:03:20.617Z,21.33
2023-04-27T03:06:22.309Z,20.73
2023-04-27T03:09:24.317Z,32.40
2023-04-27T03:12:25.953Z,20.33
2023-04-27T03:15:27.525Z,20.38
2023-04-27T03:18:29.135Z,16.20
2023-04-27T03:21:31.726Z,15.32
2023-04-27T03:24:33.349Z,15.30
2023-04-27T03:27:35.033Z,15.52
2023-04-27T03:30:39.354Z,19.38
2023-04-27T03:33:41.308Z,16.33
2023-04-27T03:36:43.357Z,18.58
2023-04-27T03:39:45.122Z,16.27
2023-04-27T03:42:46.718Z,17.17
2023-04-27T03:45:48.461Z,18.10
2023-04-27T03:48:50.075Z,18.20
2023-04-27T03:51:51.835Z,20.60
2023-04-27T03:54:53.396Z,21.52
2023-04-27T03:57:54.998Z,18.30
2023-04-27T04:00:57.213Z,22.23
2023-04-27T04:03:59.073Z,19.23
2023-04-27T04:07:00.732Z,17.17
2023-04-27T04:10:02.522Z,16.60
2023-04-27T04:13:04.088Z,19.65
2023-04-27T04:16:07.946Z,20.35
2023-04-27T04:19:09.708Z,20.33
2023-04-27T04:22:11.874Z,22.15
2023-04-27T04:25:13.860Z,24.25
2023-04-27T04:28:15.590Z,18.80
2023-04-27T04:31:18.180Z,23.08
2023-04-27T04:34:19.980Z,17.98
2023-04-27T04:37:21.694Z,19.27
2023-04-27T04:40:23.456Z,20.38
2023-04-27T04:43:25.067Z,24.92
2023-04-27T04:46:26.775Z,22.83
2023-04-27T04:49:28.380Z,27.50
2023-04-27T04:52:29.951Z,30.88
2023-04-27T04:55:31.511Z,24.88
2023-04-27T04:58:33.169Z,26.02
2023-04-27T05:01:34.761Z,28.30
2023-04-27T05:04:36.366Z,26.17
2023-04-27T05:07:38.028Z,25.42
2023-04-27T05:10:39.560Z,25.80
2023-04-27T05:13:41.222Z,28.55
2023-04-27T05:16:42.845Z,23.05
2023-04-27T05:19:44.951Z,24.98
2023-04-27T05:22:46.502Z,24.05
2023-04-27T05:25:48.043Z,21.25
2023-04-27T05:28:49.772Z,17.58
2023-04-27T05:31:51.356Z,20.27
2023-04-27T05:34:52.977Z,24.50
2023-04-27T05:37:54.590Z,23.77
2023-04-27T05:40:59.454Z,22.42
2023-04-27T05:44:01.082Z,23.10
2023-04-27T05:47:02.752Z,20.83
2023-04-27T05:50:04.646Z,22.48
2023-04-27T05:53:06.971Z,19.42
2023-04-27T05:56:08.773Z,20.92
2023-04-27T05:59:10.550Z,20.60
2023-04-27T06:02:12.280Z,20.35
2023-04-27T06:05:14.294Z,22.92
2023-04-27T06:08:16.034Z,22.33
2023-04-27T06:11:17.950Z,19.70
2023-04-27T06:14:19.499Z,20.95
2023-04-27T06:17:21.881Z,16.50
2023-04-27T06:20:23.593Z,28.17
2023-04-27T06:23:25.364Z,21.30
2023-04-27T06:26:27.432Z,17.73
2023-04-27T06:29:28.993Z,18.17
2023-04-27T06:32:30.892Z,21.38
2023-04-27T06:35:32.465Z,19.45
2023-04-27T06:38:34.066Z,23.38
2023-04-27T06:41:35.701Z,15.95
2023-04-27T06:44:37.650Z,15.73
2023-04-27T06:47:39.227Z,14.20
2023-04-27T06:50:41.061Z,14.32
2023-04-27T06:53:42.650Z,15.18
2023-04-27T06:56:47.331Z,15.95
2023-04-27T06:59:49.046Z,16.67
2023-04-27T07:02:51.532Z,14.98
2023-04-27T07:05:53.334Z,14.38
2023-04-27T07:08:55.266Z,13.52
2023-04-27T07:11:58.750Z,12.80
2023-04-27T07:15:00.405Z,15.27
2023-04-27T07:18:02.055Z,16.65
2023-04-27T07:24:04.780Z,16.70
2023-04-27T07:27:06.326Z,16.52
2023-04-27T07:30:10.057Z,13.98
2023-04-27T07:33:11.688Z,16.27
2023-04-27T07:36:13.384Z,18.85
2023-04-27T07:39:15.221Z,9.80
2023-04-27T07:42:17.042Z,17.58
2023-04-27T07:45:18.849Z,12.40
2023-04-27T07:48:20.546Z,12.93
2023-04-27T07:51:22.229Z,12.55
2023-04-27T07:54:24.092Z,15.00
2023-04-27T07:57:25.934Z,12.32
2023-04-27T08:00:27.719Z,16.63
2023-04-27T08:03:29.751Z,10.75
2023-04-27T08:06:31.864Z,13.48
2023-04-27T08:09:33.790Z,11.60
2023-04-27T08:12:35.693Z,15.32
2023-04-27T08:15:37.466Z,8.93
2023-04-27T08:18:39.006Z,14.60
2023-04-27T08:21:40.662Z,10.02
2023-04-27T08:24:42.325Z,15.80
2023-04-27T08:27:43.880Z,14.70
2023-04-27T08:30:46.219Z,18.27
2023-04-27T08:33:47.915Z,8.73
2023-04-27T08:36:49.513Z,12.15
2023-04-27T08:39:51.086Z,10.13
2023-04-27T08:43:00.319Z,12.57
2023-04-27T08:46:02.611Z,14.68
2023-04-27T08:49:04.408Z,10.05
2023-04-27T08:52:14.451Z,9.52
2023-04-27T08:55:16.841Z,8.60
2023-04-27T08:58:18.527Z,10.43
2023-04-27T09:01:20.990Z,11.35
2023-04-27T09:04:22.767Z,11.38
2023-04-27T09:07:25.725Z,8.73
2023-04-27T09:10:29.678Z,10.98
2023-04-27T09:13:39.142Z,9.40
2023-04-27T09:16:40.937Z,9.52
2023-04-27T09:19:42.589Z,8.73
2023-04-27T09:22:49.381Z,8.70
2023-04-27T09:25:50.990Z,10.52
2023-04-27T09:28:54.540Z,11.30
2023-04-27T09:31:56.192Z,12.63
2023-04-27T09:34:57.796Z,9.30
2023-04-27T09:38:00.650Z,13.68
2023-04-27T09:41:02.494Z,12.80
2023-04-27T09:44:04.657Z,11.07
2023-04-27T09:47:07.023Z,14.10
2023-04-27T09:50:11.483Z,11.82
2023-04-27T09:53:15.682Z,7.95
2023-04-27T09:56:23.169Z,9.52
2023-04-27T09:59:40.752Z,9.27
2023-04-27T10:03:22.831Z,9.57
2023-04-27T10:06:57.639Z,10.68
2023-04-27T10:10:02.738Z,7.78
2023-04-27T10:13:04.341Z,13.02
2023-04-27T10:16:16.720Z,8.57
2023-04-27T10:19:18.890Z,10.10
2023-04-27T10:22:20.941Z,8.48
2023-04-27T10:25:23.471Z,12.07
2023-04-27T10:28:25.354Z,6.63
2023-04-27T10:31:30.600Z,10.73
2023-04-27T10:34:36.946Z,9.27
2023-04-27T10:37:42.938Z,7.65
2023-04-27T10:40:46.390Z,9.60
2023-04-27T10:43:48.202Z,6.53
2023-04-27T10:46:51.257Z,12.15
2023-04-27T10:49:54.640Z,7.63
2023-04-27T10:53:04.390Z,12.18
2023-04-27T10:56:07.048Z,12.27
2023-04-27T10:59:09.388Z,7.85
2023-04-27T11:02:12.660Z,10.07
2023-04-27T11:05:19.076Z,13.57
2023-04-27T11:08:21.350Z,7.35
2023-04-27T11:11:24.207Z,9.48
2023-04-27T11:14:25.840Z,10.35
2023-04-27T11:17:32.087Z,10.95
2023-04-27T11:20:33.660Z,11.35
2023-04-27T11:23:39.517Z,12.35
2023-04-27T11:26:41.311Z,10.10
2023-04-27T11:29:42.873Z,14.95
2023-04-27T11:32:44.496Z,10.60
2023-04-27T11:35:46.073Z,14.35
2023-04-27T11:38:48.287Z,13.57
2023-04-27T11:41:49.948Z,7.95
2023-04-27T11:44:57.149Z,10.15
2023-04-27T11:47:59.564Z,8.32
2023-04-27T11:51:01.483Z,12.98
2023-04-27T11:54:04.303Z,13.20
2023-04-27T11:57:06.953Z,11.88
2023-04-27T12:00:10.798Z,12.35
2023-04-27T12:03:12.830Z,13.15
2023-04-27T12:06:31.664Z,12.88
2023-04-27T12:09:34.232Z,13.93
2023-04-27T12:12:36.334Z,9.95
2023-04-27T12:15:38.677Z,10.40
2023-04-27T12:18:40.331Z,13.32
2023-04-27T12:21:42.646Z,12.15
2023-04-27T12:24:44.212Z,13.30
2023-04-27T12:27:47.843Z,11.52
2023-04-27T12:30:49.779Z,13.18
2023-04-27T12:33:51.868Z,15.48
2023-04-27T12:36:53.448Z,11.90
2023-04-27T12:39:55.161Z,15.18
2023-04-27T12:42:57.959Z,8.85
2023-04-27T12:46:01.290Z,13.05
2023-04-27T12:49:02.919Z,15.57
2023-04-27T12:52:04.804Z,11.55
2023-04-27T12:55:10.924Z,15.38
2023-04-27T13:01:19.531Z,13.25
2023-04-27T13:04:22.424Z,12.27
2023-04-27T13:07:24.534Z,11.02
2023-04-27T13:10:26.206Z,11.93
2023-04-27T13:13:27.754Z,12.63
2023-04-27T13:16:29.352Z,11.23
2023-04-27T13:19:31.517Z,10.52
2023-04-27T13:22:33.123Z,10.32
2023-04-27T13:25:35.084Z,14.63
2023-04-27T13:28:36.729Z,9.73
2023-04-27T13:31:38.694Z,10.25
2023-04-27T13:34:40.317Z,10.98
2023-04-27T13:37:42.244Z,14.77
2023-04-27T13:40:43.898Z,12.30
2023-04-27T13:43:45.524Z,12.48
2023-04-27T13:46:47.169Z,11.63
2023-04-27T13:49:48.734Z,11.90
2023-04-27T13:52:50.336Z,11.52
2023-04-27T13:55:56.744Z,12.60
2023-04-27T13:58:58.337Z,12.48
2023-04-27T14:01:59.976Z,16.50
2023-04-27T14:05:01.626Z,13.75
2023-04-27T14:08:03.442Z,13.32
2023-04-27T14:11:06.452Z,10.43
2023-04-27T14:14:08.106Z,11.00
2023-04-27T14:17:09.728Z,12.70
2023-04-27T14:20:11.558Z,13.50
2023-04-27T14:23:13.248Z,14.88
2023-04-27T14:26:14.799Z,10.18
2023-04-27T14:29:16.790Z,12.98
2023-04-27T14:32:18.592Z,14.18
2023-04-27T14:35:21.121Z,14.80
2023-04-27T14:38:22.715Z,13.05
2023-04-27T14:41:24.298Z,12.93
2023-04-27T14:44:26.088Z,13.25
2023-04-27T14:47:27.750Z,20.77
2023-04-27T14:50:29.449Z,13.13
2023-04-27T14:53:31.340Z,13.18
2023-04-27T14:56:33.624Z,12.85
2023-04-27T14:59:35.317Z,13.15
2023-04-27T15:02:38.000Z,11.45
2023-04-27T15:05:39.793Z,15.38
2023-04-27T15:08:41.559Z,11.65
2023-04-27T15:11:43.176Z,16.50
2023-04-27T15:14:44.769Z,26.17
2023-04-27T15:17:46.429Z,12.05
2023-04-27T15:20:52.587Z,11.60
2023-04-27T15:23:54.111Z,14.27
2023-04-27T15:26:55.813Z,12.85
2023-04-27T15:29:58.385Z,12.18
2023-04-27T15:33:00.260Z,12.48
2023-04-27T15:36:01.989Z,14.90
2023-04-27T15:39:03.924Z,15.88
2023-04-27T15:42:05.915Z,12.02
2023-04-27T15:45:10.007Z,12.40
2023-04-27T15:48:12.174Z,14.65
2023-04-27T15:51:13.805Z,11.70
2023-04-27T15:54:15.428Z,16.75
2023-04-27T15:57:18.196Z,14.00
2023-04-27T16:00:22.065Z,12.45
2023-04-27T16:03:23.743Z,15.00
2023-04-27T16:06:36.562Z,15.70
2023-04-27T16:09:38.428Z,14.98
2023-04-27T16:12:40.370Z,13.00
2023-04-27T16:15:43.067Z,26.83
2023-04-27T16:18:44.970Z,16.30
2023-04-27T16:21:47.374Z,15.23
2023-04-27T16:24:49.073Z,18.50
2023-04-27T16:27:50.899Z,18.45
2023-04-27T16:30:52.796Z,13.75
2023-04-27T16:33:54.497Z,11.30
2023-04-27T16:36:56.255Z,14.60
2023-04-27T16:40:05.666Z,16.92
2023-04-27T16:43:07.336Z,15.48
2023-04-27T16:46:10.722Z,14.15
2023-04-27T16:49:12.669Z,12.70
2023-04-27T16:52:14.572Z,14.77
2023-04-27T16:55:16.306Z,18.27
2023-04-27T16:58:17.990Z,17.52
2023-04-27T17:01:19.717Z,13.40
2023-04-27T17:04:21.327Z,13.20
2023-04-27T17:07:23.067Z,12.60
2023-04-27T17:10:24.842Z,19.92
2023-04-27T17:13:26.434Z,16.50
2023-04-27T17:16:28.167Z,11.73
2023-04-27T17:19:30.819Z,12.75
2023-04-27T17:22:32.912Z,16.38
2023-04-27T17:25:34.508Z,15.55
2023-04-27T17:28:36.224Z,14.40
2023-04-27T17:31:39.606Z,15.07
2023-04-27T17:34:42.976Z,14.80
2023-04-27T17:37:44.707Z,16.52
2023-04-27T17:40:46.902Z,15.50
2023-04-27T17:43:49.855Z,17.80
2023-04-27T17:46:51.872Z,17.75
2023-04-27T17:49:53.454Z,16.33
2023-04-27T17:52:55.160Z,18.77
2023-04-27T17:55:56.721Z,14.88
2023-04-27T17:58:58.297Z,18.00
2023-04-27T18:01:59.867Z,18.38
2023-04-27T18:05:01.517Z,20.40
2023-04-27T18:08:03.236Z,18.17
2023-04-27T18:11:06.517Z,21.30
2023-04-27T18:14:08.142Z,22.05
2023-04-27T18:17:09.786Z,18.35
2023-04-27T18:20:11.995Z,13.18
2023-04-27T18:23:14.622Z,20.17
2023-04-27T18:26:16.499Z,15.20
2023-04-27T18:29:18.063Z,18.33
2023-04-27T18:32:19.618Z,21.17
2023-04-27T18:35:21.199Z,15.65
2023-04-27T18:38:22.762Z,15.27
2023-04-27T18:41:24.752Z,17.13
2023-04-27T18:44:27.179Z,18.27
2023-04-27T18:47:28.895Z,19.65
2023-04-27T18:50:30.471Z,16.73
2023-04-27T18:53:32.051Z,13.93
2023-04-27T18:56:34.836Z,14.35
2023-04-27T18:59:38.864Z,15.38
2023-04-27T19:02:40.633Z,22.33
2023-04-27T19:05:45.554Z,18.80
2023-04-27T19:08:47.163Z,18.80
2023-04-27T19:11:56.129Z,13.60
2023-04-27T19:15:04.675Z,14.77
2023-04-27T19:18:11.402Z,11.15
2023-04-27T19:21:13.595Z,16.45
2023-04-27T19:24:15.402Z,20.00
2023-04-27T19:27:17.025Z,15.63
2023-04-27T19:30:18.701Z,14.05
2023-04-27T19:33:21.353Z,13.52
2023-04-27T19:36:23.163Z,17.15
2023-04-27T19:39:24.821Z,14.43
2023-04-27T19:42:26.957Z,19.27
2023-04-27T19:45:28.555Z,12.80
2023-04-27T19:48:30.277Z,17.83
2023-04-27T19:51:32.119Z,13.60
2023-04-27T19:54:35.797Z,17.23
2023-04-27T19:57:37.412Z,17.77
2023-04-27T20:00:38.981Z,14.38
2023-04-27T20:03:40.859Z,13.75
2023-04-27T20:06:43.263Z,15.05
2023-04-27T20:09:44.900Z,13.77
2023-04-27T20:12:56.024Z,15.70
2023-04-27T20:15:59.090Z,16.58
2023-04-27T20:19:00.790Z,13.95
2023-04-27T20:22:03.005Z,13.30
2023-04-27T20:25:07.670Z,16.73
2023-04-27T20:28:09.230Z,16.98
2023-04-27T20:31:10.956Z,16.05
2023-04-27T20:34:12.875Z,15.25
2023-04-27T20:37:16.786Z,15.93
2023-04-27T20:40:18.806Z,13.48
2023-04-27T20:43:21.100Z,13.30
2023-04-27T20:46:22.693Z,13.73
2023-04-27T20:49:34.490Z,13.27
2023-04-27T20:52:36.976Z,14.80
2023-04-27T20:55:38.694Z,12.13
2023-04-27T20:58:40.568Z,12.93
2023-04-27T21:01:42.141Z,14.00
2023-04-27T21:04:43.927Z,12.00
2023-04-27T21:07:45.745Z,16.75
2023-04-27T21:10:47.390Z,15.13
2023-04-27T21:13:49.060Z,18.73
2023-04-27T21:16:50.964Z,13.75
2023-04-27T21:19:52.687Z,16.65
2023-04-27T21:22:54.373Z,14.10
2023-04-27T21:25:56.082Z,14.30
2023-04-27T21:28:57.901Z,13.85
2023-04-27T21:31:59.458Z,15.88
2023-04-27T21:35:01.067Z,17.27
2023-04-27T21:38:02.694Z,18.45
2023-04-27T21:41:04.755Z,12.43
2023-04-27T21:44:06.407Z,12.18
2023-04-27T21:47:08.024Z,15.23
2023-04-27T21:50:09.850Z,12.38
2023-04-27T21:53:11.502Z,13.07
2023-04-27T21:56:13.087Z,12.38
2023-04-27T21:59:14.726Z,12.82
2023-04-27T22:02:16.416Z,17.30
2023-04-27T22:05:20.905Z,15.63
2023-04-27T22:08:23.325Z,14.35
2023-04-27T22:11:25.261Z,15.32
2023-04-27T22:14:26.845Z,11.73
2023-04-27T22:17:28.426Z,13.60
2023-04-27T22:20:30.060Z,16.25
2023-04-27T22:23:31.630Z,11.00
2023-04-27T22:26:33.284Z,14.27
2023-04-27T22:29:34.838Z,12.73
2023-04-27T22:32:36.491Z,12.65
2023-04-27T22:35:38.185Z,14.57
2023-04-27T22:38:41.342Z,17.92
2023-04-27T22:41:43.347Z,13.30
2023-04-27T22:44:45.499Z,13.15
2023-04-27T22:47:47.208Z,16.17
2023-04-27T22:50:49.111Z,25.10
2023-04-27T22:53:50.689Z,14.93
2023-04-27T22:56:52.444Z,14.30
2023-04-27T22:59:54.056Z,16.83
2023-04-27T23:02:55.816Z,15.38
2023-04-27T23:05:57.641Z,14.73
2023-04-27T23:08:59.200Z,15.98
2023-04-27T23:12:00.965Z,14.60
2023-04-27T23:15:02.824Z,16.48
2023-04-27T23:18:04.401Z,22.90
2023-04-27T23:21:06.177Z,20.67
2023-04-27T23:24:07.820Z,15.55
2023-04-27T23:27:09.382Z,13.10
2023-04-27T23:30:11.531Z,17.33
2023-04-27T23:33:13.055Z,13.18
2023-04-27T23:36:14.727Z,16.73
2023-04-27T23:39:16.297Z,18.05
2023-04-27T23:42:17.915Z,16.67
2023-04-27T23:45:20.135Z,22.00
2023-04-27T23:48:21.784Z,20.50
2023-04-27T23:51:23.871Z,16.80
2023-04-27T23:54:26.039Z,17.38
2023-04-27T23:57:27.664Z,16.67
